Time;durP1;ratioP1;P1;durP2;ratioP2;P2;SDS_P1;SDS_P2;PMS_P1;PMS_P2;Temp;Humidity;BMP_temperature;BMP_pressure;BME280_temperature;BME280_humidity;BME280_pressure;Samples;Min_cycle;Max_cycle;Signal;HPM_P1;HPM_P2
2023/07/06 00:02:22;;;;;;;;;;;;;;;;;;5044125;28;4725;-67
2023/07/06 00:04:48;;;;;;;;;;;;;;;;;;5043113;28;1385;-67
2023/07/06 00:07:20;;;;;;;;;;;;;;;;;;5046460;28;5011;-65
2023/07/06 00:09:46;;;;;;;;;;;;;;;;;;5047001;28;4632;-68
2023/07/06 00:12:11;;;;;;;;;;;;;;;;;;5047080;28;4471;-67
2023/07/06 00:14:38;;;;;;;;;;;;;;;;;;5037237;28;4558;-67
2023/07/06 00:17:22;;;;;;;;;;;;;;;;;;5047692;28;1165;-68
2023/07/06 00:19:47;;;;;;;;;;;;;;;;;;5051327;28;5072;-67
2023/07/06 00:22:12;;;;;;;;;;;;;;;;;;5050591;28;4475;-67
2023/07/06 00:24:40;;;;;;;;;;;;;;;;;;5050735;28;4523;-67
2023/07/06 00:27:06;;;;;;;;;;;;;;;;;;5048946;28;4532;-68
2023/07/06 00:29:35;;;;;;;;;;;;;;;;;;5050925;28;4503;-67
2023/07/06 00:32:15;;;;;;;;;;;;;;;;;;5049280;28;1948;-68
2023/07/06 00:34:41;;;;;;;;;;;;;;;;;;5031138;28;5053;-68
2023/07/06 00:37:06;;;;;;;;;;;;;;;;;;5051632;28;5079;-67
2023/07/06 00:39:31;;;;;;;;;;;;;;;;;;5059900;28;4674;-68
2023/07/06 00:41:58;;;;;;;;;;;;;;;;;;5050464;28;5646;-67
2023/07/06 00:44:42;;;;;;;;;;;;;;;;;;5050635;28;5035;-67
2023/07/06 00:47:08;;;;;;;;;;;;;;;;;;5050683;28;4449;-67
2023/07/06 00:49:33;;;;;;;;;;;;;;;;;;5065530;28;1197;-68
2023/07/06 00:52:00;;;;;;;;;;;;;;;;;;5060150;28;5181;-67
2023/07/06 00:54:26;;;;;;;;;;;;;;;;;;5049588;28;5155;-67
2023/07/06 00:56:52;;;;;;;;;;;;;;;;;;5050149;28;5163;-68
2023/07/06 00:59:19;;;;;;;;;;;;;;;;;;5047818;28;5010;-67
2023/07/06 01:01:45;;;;;;;;;;;;;;;;;;5050708;28;1234;-66
2023/07/06 01:04:11;;;;;;;;;;;;;;;;;;5050237;28;4417;-66
2023/07/06 01:06:41;;;;;;;;;;;;;;;;;;5049626;28;4610;-67
2023/07/06 01:09:07;;;;;;;;;;;;;;;;;;5050191;28;4762;-67
2023/07/06 01:11:33;;;;;;;;;;;;;;;;;;5065030;28;4870;-67
2023/07/06 01:13:58;;;;;;;;;;;;;;;;;;5065449;28;1555;-66
2023/07/06 01:16:25;;;;;;;;;;;;;;;;;;5049977;28;4966;-66
2023/07/06 01:18:57;;;;;;;;;;;;;;;;;;5051014;28;5127;-65
2023/07/06 01:21:22;;;;;;;;;;;;;;;;;;5027060;28;4530;-66
2023/07/06 01:23:49;;;;;;;;;;;;;;;;;;5049741;28;4460;-66
2023/07/06 01:26:35;;;;;;;;;;;;;;;;;;5050273;28;4620;-67
2023/07/06 01:29:19;;;;;;;;;;;;;;;;;;5055801;28;1452;-66
2023/07/06 01:31:50;;;;;;;;;;;;;;;;;;5049674;28;5159;-67
2023/07/06 01:34:18;;;;;;;;;;;;;;;;;;5040236;28;4952;-66
2023/07/06 01:36:46;;;;;;;;;;;;;;;;;;5045637;28;4627;-66
2023/07/06 01:39:18;;;;;;;;;;;;;;;;;;5049823;28;4667;-66
2023/07/06 01:41:45;;;;;;;;;;;;;;;;;;5046863;28;4465;-66
2023/07/06 01:44:11;;;;;;;;;;;;;;;;;;5049147;28;4999;-66
2023/07/06 01:46:37;;;;;;;;;;;;;;;;;;5042272;28;1140;-66
2023/07/06 01:49:05;;;;;;;;;;;;;;;;;;5049354;28;5043;-66
2023/07/06 01:51:50;;;;;;;;;;;;;;;;;;5064384;28;4459;-66
2023/07/06 01:54:17;;;;;;;;;;;;;;;;;;5032248;28;5079;-66
2023/07/06 01:56:46;;;;;;;;;;;;;;;;;;5031133;28;5136;-66
2023/07/06 01:59:13;;;;;;;;;;;;;;;;;;5064437;28;5056;-66
2023/07/06 02:01:42;;;;;;;;;;;;;;;;;;5028350;28;1158;-66
2023/07/06 02:04:07;;;;;;;;;;;;;;;;;;5024304;28;4952;-66
2023/07/06 02:06:33;;;;;;;;;;;;;;;;;;5021034;28;5027;-66
2023/07/06 02:08:58;;;;;;;;;;;;;;;;;;5029018;28;4665;-66
2023/07/06 02:11:24;;;;;;;;;;;;;;;;;;5028774;28;5078;-66
2023/07/06 02:13:50;;;;;;;;;;;;;;;;;;5031073;28;1085;-66
2023/07/06 02:16:15;;;;;;;;;;;;;;;;;;5029520;28;5272;-66
2023/07/06 02:18:41;;;;;;;;;;;;;;;;;;5029254;28;4564;-66
2023/07/06 02:21:06;;;;;;;;;;;;;;;;;;5027331;28;5119;-66
2023/07/06 02:23:32;;;;;;;;;;;;;;;;;;5028653;28;4548;-66
2023/07/06 02:25:57;;;;;;;;;;;;;;;;;;5028076;28;1199;-65
2023/07/06 02:28:23;;;;;;;;;;;;;;;;;;5026916;28;5041;-66
2023/07/06 02:30:48;;;;;;;;;;;;;;;;;;5026483;28;5033;-66
2023/07/06 02:33:14;;;;;;;;;;;;;;;;;;5027138;28;5122;-67
2023/07/06 02:35:40;;;;;;;;;;;;;;;;;;5025827;28;4872;-66
2023/07/06 02:38:05;;;;;;;;;;;;;;;;;;5025836;28;4531;-66
2023/07/06 02:40:32;;;;;;;;;;;;;;;;;;5027074;28;1304;-66
2023/07/06 02:42:57;;;;;;;;;;;;;;;;;;5029775;28;4866;-67
2023/07/06 02:45:23;;;;;;;;;;;;;;;;;;5028147;28;5061;-67
2023/07/06 02:47:48;;;;;;;;;;;;;;;;;;5028552;28;4587;-66
2023/07/06 02:50:14;;;;;;;;;;;;;;;;;;5027875;28;4449;-66
2023/07/06 02:52:40;;;;;;;;;;;;;;;;;;5028815;28;1129;-66
2023/07/06 02:55:05;;;;;;;;;;;;;;;;;;5042811;28;4451;-67
2023/07/06 02:57:31;;;;;;;;;;;;;;;;;;5029249;28;5160;-66
2023/07/06 02:59:57;;;;;;;;;;;;;;;;;;5027886;28;4933;-66
2023/07/06 03:02:22;;;;;;;;;;;;;;;;;;5046647;28;5086;-66
2023/07/06 03:04:47;;;;;;;;;;;;;;;;;;5048020;28;1119;-66
2023/07/06 03:07:12;;;;;;;;;;;;;;;;;;5042272;28;5111;-67
2023/07/06 03:09:38;;;;;;;;;;;;;;;;;;5047717;28;4625;-67
2023/07/06 03:12:05;;;;;;;;;;;;;;;;;;5047888;28;5077;-67
2023/07/06 03:14:31;;;;;;;;;;;;;;;;;;5046783;28;5083;-67
2023/07/06 03:16:56;;;;;;;;;;;;;;;;;;5046889;28;1527;-66
2023/07/06 03:19:21;;;;;;;;;;;;;;;;;;5047517;28;5049;-66
2023/07/06 03:21:47;;;;;;;;;;;;;;;;;;5047679;28;5134;-67
2023/07/06 03:24:13;;;;;;;;;;;;;;;;;;5048587;28;4989;-67
2023/07/06 03:26:39;;;;;;;;;;;;;;;;;;5043908;28;4719;-67
2023/07/06 03:29:05;;;;;;;;;;;;;;;;;;5029493;28;5377;-66
2023/07/06 03:31:32;;;;;;;;;;;;;;;;;;5048464;28;1166;-67
2023/07/06 03:33:57;;;;;;;;;;;;;;;;;;5047248;28;5053;-67
2023/07/06 03:36:22;;;;;;;;;;;;;;;;;;5047335;28;5388;-67
2023/07/06 03:38:49;;;;;;;;;;;;;;;;;;5033471;28;4685;-67
2023/07/06 03:41:17;;;;;;;;;;;;;;;;;;5045167;28;4509;-67
2023/07/06 03:43:42;;;;;;;;;;;;;;;;;;5048138;28;1119;-66
2023/07/06 03:46:08;;;;;;;;;;;;;;;;;;5047167;28;5113;-66
2023/07/06 03:48:33;;;;;;;;;;;;;;;;;;5039078;28;5108;-66
2023/07/06 03:51:02;;;;;;;;;;;;;;;;;;5047074;28;5089;-68
2023/07/06 03:53:28;;;;;;;;;;;;;;;;;;5052333;28;4998;-67
2023/07/06 03:55:53;;;;;;;;;;;;;;;;;;5052181;28;1058;-67
2023/07/06 03:58:21;;;;;;;;;;;;;;;;;;5051230;28;4977;-67
2023/07/06 04:00:47;;;;;;;;;;;;;;;;;;5051719;28;4665;-67
2023/07/06 04:03:12;;;;;;;;;;;;;;;;;;5051017;28;5038;-66
2023/07/06 04:05:38;;;;;;;;;;;;;;;;;;5066456;28;4451;-67
2023/07/06 04:08:04;;;;;;;;;;;;;;;;;;5051326;28;1176;-68
2023/07/06 04:10:30;;;;;;;;;;;;;;;;;;5046733;28;5089;-68
2023/07/06 04:12:55;;;;;;;;;;;;;;;;;;5051268;28;5016;-67
2023/07/06 04:15:22;;;;;;;;;;;;;;;;;;5049032;28;5266;-67
2023/07/06 04:17:52;;;;;;;;;;;;;;;;;;5051121;28;5283;-67
2023/07/06 04:20:18;;;;;;;;;;;;;;;;;;5050649;28;5068;-67
2023/07/06 04:22:44;;;;;;;;;;;;;;;;;;5047815;28;1355;-67
2023/07/06 04:25:10;;;;;;;;;;;;;;;;;;5048414;28;4661;-67
2023/07/06 04:27:35;;;;;;;;;;;;;;;;;;5049314;28;4465;-68
2023/07/06 04:30:00;;;;;;;;;;;;;;;;;;5044042;28;5108;-67
2023/07/06 04:32:31;;;;;;;;;;;;;;;;;;5050682;28;5076;-66
2023/07/06 04:34:56;;;;;;;;;;;;;;;;;;5038219;28;5046;-66
2023/07/06 04:37:22;;;;;;;;;;;;;;;;;;5062980;28;4642;-67
2023/07/06 04:39:47;;;;;;;;;;;;;;;;;;5050675;28;4797;-66
2023/07/06 04:42:12;;;;;;;;;;;;;;;;;;5050353;28;4854;-66
2023/07/06 04:44:37;;;;;;;;;;;;;;;;;;5046970;28;5137;-67
2023/07/06 04:47:03;;;;;;;;;;;;;;;;;;5050894;28;1112;-67
2023/07/06 04:49:29;;;;;;;;;;;;;;;;;;5049626;28;4608;-67
2023/07/06 04:51:54;;;;;;;;;;;;;;;;;;5043860;28;4431;-67
2023/07/06 04:54:19;;;;;;;;;;;;;;;;;;5050490;28;5005;-66
2023/07/06 04:56:44;;;;;;;;;;;;;;;;;;5050328;28;5438;-67
2023/07/06 04:59:10;;;;;;;;;;;;;;;;;;5050098;28;5025;-66
2023/07/06 05:01:35;;;;;;;;;;;;;;;;;;5037129;28;1504;-66
2023/07/06 05:04:01;;;;;;;;;;;;;;;;;;5049891;28;5139;-66
2023/07/06 05:06:26;;;;;;;;;;;;;;;;;;5048708;28;4433;-67
2023/07/06 05:08:52;;;;;;;;;;;;;;;;;;5050147;28;4626;-67
2023/07/06 05:11:18;;;;;;;;;;;;;;;;;;5049981;28;5059;-67
2023/07/06 05:13:43;;;;;;;;;;;;;;;;;;5048506;28;2405;-67
2023/07/06 05:16:08;;;;;;;;;;;;;;;;;;5049438;28;4487;-66
2023/07/06 05:18:33;;;;;;;;;;;;;;;;;;5049827;28;5007;-68
2023/07/06 05:21:00;;;;;;;;;;;;;;;;;;5050205;28;4507;-66
2023/07/06 05:23:28;;;;;;;;;;;;;;;;;;5047785;28;4495;-67
2023/07/06 05:25:53;;;;;;;;;;;;;;;;;;5043338;28;3393;-67
2023/07/06 05:28:20;;;;;;;;;;;;;;;;;;5045487;28;5977;-66
2023/07/06 05:30:45;;;;;;;;;;;;;;;;;;5042219;28;4675;-66
2023/07/06 05:33:12;;;;;;;;;;;;;;;;;;5040562;28;4497;-66
2023/07/06 05:35:38;;;;;;;;;;;;;;;;;;5039180;28;4888;-67
2023/07/06 05:38:03;;;;;;;;;;;;;;;;;;5047590;28;1918;-66
2023/07/06 05:40:28;;;;;;;;;;;;;;;;;;5043991;28;5125;-66
2023/07/06 05:42:54;;;;;;;;;;;;;;;;;;5048366;28;4703;-66
2023/07/06 05:45:20;;;;;;;;;;;;;;;;;;5048375;28;4922;-66
2023/07/06 05:47:45;;;;;;;;;;;;;;;;;;5046293;28;5061;-67
2023/07/06 05:50:10;;;;;;;;;;;;;;;;;;5048417;28;5099;-66
2023/07/06 05:52:36;;;;;;;;;;;;;;;;;;5049961;28;1106;-66
2023/07/06 05:55:01;;;;;;;;;;;;;;;;;;5048870;28;5222;-66
2023/07/06 05:57:26;;;;;;;;;;;;;;;;;;5049259;28;4807;-66
2023/07/06 05:59:53;;;;;;;;;;;;;;;;;;5049722;28;4527;-66
2023/07/06 06:02:20;;;;;;;;;;;;;;;;;;5048983;28;5014;-65
2023/07/06 06:04:47;;;;;;;;;;;;;;;;;;5049220;28;1101;-66
2023/07/06 06:07:12;;;;;;;;;;;;;;;;;;5063768;28;4511;-66
2023/07/06 06:09:38;;;;;;;;;;;;;;;;;;5046997;28;4653;-66
2023/07/06 06:12:04;;;;;;;;;;;;;;;;;;5048693;28;5947;-67
2023/07/06 06:14:30;;;;;;;;;;;;;;;;;;5048939;28;4584;-66
2023/07/06 06:16:56;;;;;;;;;;;;;;;;;;5064099;28;1156;-66
2023/07/06 06:19:21;;;;;;;;;;;;;;;;;;5048574;28;4394;-66
2023/07/06 06:21:48;;;;;;;;;;;;;;;;;;5048317;28;4467;-66
2023/07/06 06:24:14;;;;;;;;;;;;;;;;;;5030731;28;5122;-66
2023/07/06 06:26:42;;;;;;;;;;;;;;;;;;5047437;28;4559;-67
2023/07/06 06:29:09;;;;;;;;;;;;;;;;;;5046019;28;5120;-67
2023/07/06 06:31:35;;;;;;;;;;;;;;;;;;5045137;28;1117;-66
2023/07/06 06:34:00;;;;;;;;;;;;;;;;;;5029804;28;5138;-66
2023/07/06 06:36:25;;;;;;;;;;;;;;;;;;5042366;28;5227;-66
2023/07/06 06:38:51;;;;;;;;;;;;;;;;;;5047131;28;5165;-66
2023/07/06 06:41:16;;;;;;;;;;;;;;;;;;5049830;28;4508;-66
2023/07/06 06:43:41;;;;;;;;;;;;;;;;;;5032994;28;1221;-66
2023/07/06 06:46:10;;;;;;;;;;;;;;;;;;5047685;28;4462;-66
2023/07/06 06:48:35;;;;;;;;;;;;;;;;;;5046171;28;5153;-67
2023/07/06 06:51:01;;;;;;;;;;;;;;;;;;5045173;28;4527;-67
2023/07/06 06:53:26;;;;;;;;;;;;;;;;;;5047840;28;5062;-67
2023/07/06 06:55:52;;;;;;;;;;;;;;;;;;5048601;28;1131;-66
2023/07/06 06:58:18;;;;;;;;;;;;;;;;;;5041263;28;5404;-66
2023/07/06 07:00:44;;;;;;;;;;;;;;;;;;5047276;28;4475;-67
2023/07/06 07:03:11;;;;;;;;;;;;;;;;;;5047617;28;5170;-66
2023/07/06 07:05:36;;;;;;;;;;;;;;;;;;5080628;28;5191;-67
2023/07/06 07:08:02;;;;;;;;;;;;;;;;;;5047894;28;1757;-66
2023/07/06 07:10:28;;;;;;;;;;;;;;;;;;5050095;28;4587;-65
2023/07/06 07:12:53;;;;;;;;;;;;;;;;;;5048776;28;5287;-66
2023/07/06 07:15:19;;;;;;;;;;;;;;;;;;5047809;28;5081;-66
2023/07/06 07:17:44;;;;;;;;;;;;;;;;;;5064529;28;5061;-65
2023/07/06 07:20:10;;;;;;;;;;;;;;;;;;5047041;28;4689;-66
2023/07/06 07:22:35;;;;;;;;;;;;;;;;;;5032167;28;1163;-65
2023/07/06 07:25:02;;;;;;;;;;;;;;;;;;5037031;28;4672;-67
2023/07/06 07:27:28;;;;;;;;;;;;;;;;;;5045846;28;4468;-67
2023/07/06 07:29:54;;;;;;;;;;;;;;;;;;5050304;28;5001;-67
2023/07/06 07:32:20;;;;;;;;;;;;;;;;;;5043626;28;4645;-67
2023/07/06 07:34:50;;;;;;;;;;;;;;;;;;5049706;28;4859;-67
2023/07/06 07:37:16;;;;;;;;;;;;;;;;;;5045924;28;4989;-66
2023/07/06 07:39:41;;;;;;;;;;;;;;;;;;5046655;28;5016;-65
2023/07/06 07:42:06;;;;;;;;;;;;;;;;;;5047525;28;4501;-66
2023/07/06 07:44:32;;;;;;;;;;;;;;;;;;5046835;28;4664;-65
2023/07/06 07:46:58;;;;;;;;;;;;;;;;;;5052068;28;1254;-65
2023/07/06 07:49:24;;;;;;;;;;;;;;;;;;5047667;28;5402;-65
2023/07/06 07:51:50;;;;;;;;;;;;;;;;;;5052785;28;4428;-65
2023/07/06 07:54:15;;;;;;;;;;;;;;;;;;5047111;28;4596;-65
2023/07/06 07:56:42;;;;;;;;;;;;;;;;;;5046160;28;5001;-67
2023/07/06 07:59:08;;;;;;;;;;;;;;;;;;5047127;28;4697;-67
2023/07/06 08:01:33;;;;;;;;;;;;;;;;;;5047182;28;2032;-67
2023/07/06 08:03:59;;;;;;;;;;;;;;;;;;5047456;28;4628;-67
2023/07/06 08:06:24;;;;;;;;;;;;;;;;;;5046347;28;4960;-66
2023/07/06 08:08:50;;;;;;;;;;;;;;;;;;5046139;28;5087;-64
2023/07/06 08:11:21;;;;;;;;;;;;;;;;;;5059857;28;4532;-60
2023/07/06 08:13:53;;;;;;;;;;;;;;;;;;5061467;28;3353;-61
2023/07/06 08:16:19;;;;;;;;;;;;;;;;;;5043938;28;4504;-63
2023/07/06 08:18:45;;;;;;;;;;;;;;;;;;5047247;28;4969;-63
2023/07/06 08:21:10;;;;;;;;;;;;;;;;;;5046553;28;5042;-64
2023/07/06 08:23:36;;;;;;;;;;;;;;;;;;5043023;28;4767;-63
2023/07/06 08:26:04;;;;;;;;;;;;;;;;;;5047737;28;1195;-65
2023/07/06 08:28:31;;;;;;;;;;;;;;;;;;5048996;28;4728;-65
2023/07/06 08:31:01;;;;;;;;;;;;;;;;;;5046633;28;5080;-65
2023/07/06 08:33:26;;;;;;;;;;;;;;;;;;5060371;28;5121;-63
2023/07/06 08:35:52;;;;;;;;;;;;;;;;;;5045091;28;5118;-65
2023/07/06 08:38:17;;;;;;;;;;;;;;;;;;5048412;28;4505;-63
2023/07/06 08:40:42;;;;;;;;;;;;;;;;;;5050578;28;3257;-64
2023/07/06 08:43:19;;;;;;;;;;;;;;;;;;5050147;28;4567;-64
2023/07/06 08:45:46;;;;;;;;;;;;;;;;;;5064178;28;4667;-64
2023/07/06 08:48:12;;;;;;;;;;;;;;;;;;5032884;28;4979;-65
2023/07/06 08:50:38;;;;;;;;;;;;;;;;;;5061969;28;5107;-64
2023/07/06 08:53:10;;;;;;;;;;;;;;;;;;5066965;28;3658;-65
2023/07/06 08:55:35;;;;;;;;;;;;;;;;;;5050102;28;5673;-65
2023/07/06 08:58:03;;;;;;;;;;;;;;;;;;5049886;28;4474;-65
2023/07/06 09:00:31;;;;;;;;;;;;;;;;;;5042649;28;5047;-65
2023/07/06 09:03:00;;;;;;;;;;;;;;;;;;5050218;28;5135;-65
2023/07/06 09:05:31;;;;;;;;;;;;;;;;;;5064661;28;4425;-66
2023/07/06 09:07:56;;;;;;;;;;;;;;;;;;5029942;28;3248;-65
2023/07/06 09:10:25;;;;;;;;;;;;;;;;;;5063785;28;5243;-65
2023/07/06 09:12:53;;;;;;;;;;;;;;;;;;5046884;28;4456;-64
2023/07/06 09:15:21;;;;;;;;;;;;;;;;;;5050516;28;5136;-66
2023/07/06 09:17:47;;;;;;;;;;;;;;;;;;5047066;28;5177;-65
2023/07/06 09:20:13;;;;;;;;;;;;;;;;;;5045152;28;5118;-65
2023/07/06 09:22:40;;;;;;;;;;;;;;;;;;5050313;28;1053;-65
2023/07/06 09:25:11;;;;;;;;;;;;;;;;;;5049748;28;4663;-64
2023/07/06 09:27:37;;;;;;;;;;;;;;;;;;5057856;28;5011;-64
2023/07/06 09:30:03;;;;;;;;;;;;;;;;;;5049708;28;4535;-64
2023/07/06 09:32:32;;;;;;;;;;;;;;;;;;5049421;28;5064;-64
2023/07/06 09:35:04;;;;;;;;;;;;;;;;;;5049529;28;4911;-64
2023/07/06 09:37:30;;;;;;;;;;;;;;;;;;5049322;28;5104;-64
2023/07/06 09:39:56;;;;;;;;;;;;;;;;;;5049569;28;4869;-65
2023/07/06 09:42:22;;;;;;;;;;;;;;;;;;5049079;28;5116;-64
2023/07/06 09:44:48;;;;;;;;;;;;;;;;;;5049659;28;5075;-64
2023/07/06 09:47:13;;;;;;;;;;;;;;;;;;5064787;28;4531;-63
2023/07/06 09:49:41;;;;;;;;;;;;;;;;;;5069088;28;1467;-65
2023/07/06 09:52:09;;;;;;;;;;;;;;;;;;5064262;28;4613;-64
2023/07/06 09:54:40;;;;;;;;;;;;;;;;;;5064371;28;5101;-64
2023/07/06 09:57:10;;;;;;;;;;;;;;;;;;5049334;28;4659;-64
2023/07/06 09:59:42;;;;;;;;;;;;;;;;;;5049135;28;5029;-65
2023/07/06 10:02:13;;;;;;;;;;;;;;;;;;5060305;28;4521;-64
2023/07/06 10:04:44;;;;;;;;;;;;;;;;;;5043284;28;1108;-64
2023/07/06 10:07:19;;;;;;;;;;;;;;;;;;5028106;28;5022;-64
2023/07/06 10:09:57;;;;;;;;;;;;;;;;;;5064771;28;4476;-64
2023/07/06 10:12:38;;;;;;;;;;;;;;;;;;5064055;28;4668;-64
2023/07/06 10:15:25;;;;;;;;;;;;;;;;;;5043658;28;5037;-65
2023/07/06 10:18:10;;;;;;;;;;;;;;;;;;5042012;28;5006;-64
2023/07/06 10:20:55;;;;;;;;;;;;;;;;;;5026560;28;5102;-65
2023/07/06 10:23:24;;;;;;;;;;;;;;;;;;5058282;28;4669;-64
2023/07/06 10:26:02;;;;;;;;;;;;;;;;;;5044737;28;1260;-65
2023/07/06 10:28:28;;;;;;;;;;;;;;;;;;5062208;28;4420;-65
2023/07/06 10:30:54;;;;;;;;;;;;;;;;;;5031896;28;5643;-65
2023/07/06 10:33:30;;;;;;;;;;;;;;;;;;5063465;28;5161;-64
2023/07/06 10:35:58;;;;;;;;;;;;;;;;;;5063100;28;5074;-65
2023/07/06 10:38:23;;;;;;;;;;;;;;;;;;5063042;28;5081;-65
2023/07/06 10:40:49;;;;;;;;;;;;;;;;;;5048727;28;1118;-66
2023/07/06 10:43:14;;;;;;;;;;;;;;;;;;5047073;28;5042;-65
2023/07/06 10:45:40;;;;;;;;;;;;;;;;;;5046895;28;4618;-64
2023/07/06 10:48:10;;;;;;;;;;;;;;;;;;5048385;28;4851;-64
2023/07/06 10:50:42;;;;;;;;;;;;;;;;;;5048448;28;5167;-64
2023/07/06 10:53:21;;;;;;;;;;;;;;;;;;5048315;28;5050;-64
2023/07/06 10:56:02;;;;;;;;;;;;;;;;;;5048411;28;1088;-64
2023/07/06 10:58:27;;;;;;;;;;;;;;;;;;5047309;28;5041;-65
2023/07/06 11:00:53;;;;;;;;;;;;;;;;;;5047768;28;5069;-64
2023/07/06 11:03:23;;;;;;;;;;;;;;;;;;5063350;28;4525;-64
2023/07/06 11:06:09;;;;;;;;;;;;;;;;;;5062800;28;4496;-65
2023/07/06 11:08:53;;;;;;;;;;;;;;;;;;5060570;28;4651;-63
2023/07/06 11:11:19;;;;;;;;;;;;;;;;;;5041560;28;4564;-64
2023/07/06 11:13:53;;;;;;;;;;;;;;;;;;5048385;28;1093;-64
2023/07/06 11:16:22;;;;;;;;;;;;;;;;;;5045383;28;5097;-65
2023/07/06 11:18:48;;;;;;;;;;;;;;;;;;5047769;28;4660;-63
2023/07/06 11:21:16;;;;;;;;;;;;;;;;;;5029094;28;4642;-65
2023/07/06 11:23:48;;;;;;;;;;;;;;;;;;5047616;28;5089;-64
2023/07/06 11:26:37;;;;;;;;;;;;;;;;;;5037171;28;4513;-64
2023/07/06 11:29:07;;;;;;;;;;;;;;;;;;5032424;28;1386;-64
2023/07/06 11:31:48;;;;;;;;;;;;;;;;;;5047510;28;4984;-64
2023/07/06 11:34:17;;;;;;;;;;;;;;;;;;5044635;28;5204;-64
2023/07/06 11:37:03;;;;;;;;;;;;;;;;;;5062403;28;5005;-65
2023/07/06 11:39:43;;;;;;;;;;;;;;;;;;5025305;28;4965;-64
2023/07/06 11:42:33;;;;;;;;;;;;;;;;;;5028883;28;4740;-65
2023/07/06 11:45:01;;;;;;;;;;;;;;;;;;5058956;28;5131;-64
2023/07/06 11:47:35;;;;;;;;;;;;;;;;;;5062001;28;5101;-64
2023/07/06 11:50:01;;;;;;;;;;;;;;;;;;5062279;28;1151;-65
2023/07/06 11:52:34;;;;;;;;;;;;;;;;;;5061112;28;4624;-64
2023/07/06 11:55:18;;;;;;;;;;;;;;;;;;5042494;28;5063;-63
2023/07/06 11:58:05;;;;;;;;;;;;;;;;;;5025178;28;5147;-64
2023/07/06 12:03:00;;;;;;;;;;;;;;;;;;5047102;28;5051;-64
2023/07/06 12:05:26;;;;;;;;;;;;;;;;;;5046048;28;4602;-63
2023/07/06 12:08:16;;;;;;;;;;;;;;;;;;5062215;28;1536;-65
2023/07/06 12:10:45;;;;;;;;;;;;;;;;;;5035359;28;5106;-65
2023/07/06 12:13:31;;;;;;;;;;;;;;;;;;5040249;28;5329;-65
2023/07/06 12:16:03;;;;;;;;;;;;;;;;;;5047449;28;5205;-63
2023/07/06 12:18:28;;;;;;;;;;;;;;;;;;5065896;28;5067;-64
2023/07/06 12:20:53;;;;;;;;;;;;;;;;;;5037724;28;4964;-63
2023/07/06 12:23:18;;;;;;;;;;;;;;;;;;5050807;28;4862;-64
2023/07/06 12:25:44;;;;;;;;;;;;;;;;;;5051324;28;1151;-64
2023/07/06 12:28:11;;;;;;;;;;;;;;;;;;5049205;28;4992;-64
2023/07/06 12:30:39;;;;;;;;;;;;;;;;;;5050877;28;5012;-63
2023/07/06 12:33:05;;;;;;;;;;;;;;;;;;5066093;28;5108;-64
2023/07/06 12:35:33;;;;;;;;;;;;;;;;;;5065398;28;5021;-63
2023/07/06 12:37:58;;;;;;;;;;;;;;;;;;5068265;28;1686;-64
2023/07/06 12:40:27;;;;;;;;;;;;;;;;;;5049374;28;5034;-64
2023/07/06 12:42:52;;;;;;;;;;;;;;;;;;5065835;28;5134;-65
2023/07/06 12:45:18;;;;;;;;;;;;;;;;;;5032194;28;4975;-64
2023/07/06 12:47:43;;;;;;;;;;;;;;;;;;5066209;28;5217;-63
2023/07/06 12:50:10;;;;;;;;;;;;;;;;;;5050658;28;4984;-63
2023/07/06 12:52:36;;;;;;;;;;;;;;;;;;5043338;28;1102;-63
2023/07/06 12:55:03;;;;;;;;;;;;;;;;;;5065846;28;4624;-64
2023/07/06 12:57:29;;;;;;;;;;;;;;;;;;5065376;28;4930;-64
2023/07/06 12:59:56;;;;;;;;;;;;;;;;;;5050414;28;4535;-64
2023/07/06 13:02:22;;;;;;;;;;;;;;;;;;5064571;28;5079;-64
2023/07/06 13:04:50;;;;;;;;;;;;;;;;;;5047100;28;1298;-65
2023/07/06 13:07:17;;;;;;;;;;;;;;;;;;5049150;28;4994;-65
2023/07/06 13:09:42;;;;;;;;;;;;;;;;;;5048742;28;4994;-65
2023/07/06 13:12:09;;;;;;;;;;;;;;;;;;5049177;28;4835;-65
2023/07/06 13:14:35;;;;;;;;;;;;;;;;;;5048798;28;4916;-65
2023/07/06 13:17:04;;;;;;;;;;;;;;;;;;5064750;28;1582;-63
2023/07/06 13:19:33;;;;;;;;;;;;;;;;;;5046784;28;5121;-66
2023/07/06 13:21:58;;;;;;;;;;;;;;;;;;5059139;28;5019;-66
2023/07/06 13:24:23;;;;;;;;;;;;;;;;;;5048027;28;4902;-66
2023/07/06 13:26:50;;;;;;;;;;;;;;;;;;5033377;28;4923;-66
2023/07/06 13:29:16;;;;;;;;;;;;;;;;;;5048452;28;4851;-65
2023/07/06 13:31:43;;;;;;;;;;;;;;;;;;5054475;28;1551;-65
2023/07/06 13:34:09;;;;;;;;;;;;;;;;;;5063261;28;4706;-66
2023/07/06 13:36:34;;;;;;;;;;;;;;;;;;5063444;28;5106;-65
2023/07/06 13:38:59;;;;;;;;;;;;;;;;;;5047265;28;5139;-65
2023/07/06 13:41:28;;;;;;;;;;;;;;;;;;5058494;28;5083;-65
2023/07/06 13:43:54;;;;;;;;;;;;;;;;;;5051722;28;1300;-65
2023/07/06 13:46:20;;;;;;;;;;;;;;;;;;5043695;28;4854;-67
2023/07/06 13:48:45;;;;;;;;;;;;;;;;;;5043437;28;4697;-68
2023/07/06 13:51:11;;;;;;;;;;;;;;;;;;5044702;28;4725;-63
2023/07/06 13:53:38;;;;;;;;;;;;;;;;;;5044710;28;5166;-69
2023/07/06 13:56:04;;;;;;;;;;;;;;;;;;5062195;28;3299;-68
2023/07/06 13:58:29;;;;;;;;;;;;;;;;;;5046896;28;5084;-67
2023/07/06 14:00:56;;;;;;;;;;;;;;;;;;5000936;28;1231024;-67
2023/07/06 14:03:23;;;;;;;;;;;;;;;;;;5036500;28;5129;-68
2023/07/06 14:05:48;;;;;;;;;;;;;;;;;;5049647;28;5125;-68
2023/07/06 14:08:15;;;;;;;;;;;;;;;;;;5048255;28;5053;-69
2023/07/06 14:10:40;;;;;;;;;;;;;;;;;;5049560;28;1149;-66
2023/07/06 14:13:06;;;;;;;;;;;;;;;;;;5046365;28;4513;-69
2023/07/06 14:15:31;;;;;;;;;;;;;;;;;;5063648;28;4420;-67
2023/07/06 14:17:57;;;;;;;;;;;;;;;;;;5034645;28;5030;-68
2023/07/06 14:20:23;;;;;;;;;;;;;;;;;;5048377;28;5094;-71
2023/07/06 14:22:49;;;;;;;;;;;;;;;;;;5049215;28;1265;-70
2023/07/06 14:25:22;;;;;;;;;;;;;;;;;;5049116;28;4483;-69
2023/07/06 14:27:47;;;;;;;;;;;;;;;;;;5044573;28;5063;-70
2023/07/06 14:30:17;;;;;;;;;;;;;;;;;;5048607;28;5063;-69
2023/07/06 14:32:43;;;;;;;;;;;;;;;;;;5048460;28;4599;-66
2023/07/06 14:35:09;;;;;;;;;;;;;;;;;;5047131;28;5058;-70
2023/07/06 14:37:34;;;;;;;;;;;;;;;;;;5048693;28;1401;-68
2023/07/06 14:39:59;;;;;;;;;;;;;;;;;;5047938;28;5023;-67
2023/07/06 14:42:25;;;;;;;;;;;;;;;;;;5048207;28;4966;-69
2023/07/06 14:44:50;;;;;;;;;;;;;;;;;;5048399;28;4896;-68
2023/07/06 14:47:15;;;;;;;;;;;;;;;;;;5048257;28;5010;-67
2023/07/06 14:49:40;;;;;;;;;;;;;;;;;;5048346;28;1188;-67
2023/07/06 14:52:06;;;;;;;;;;;;;;;;;;5047910;28;4629;-66
2023/07/06 14:54:33;;;;;;;;;;;;;;;;;;5048091;28;5208;-68
2023/07/06 14:56:58;;;;;;;;;;;;;;;;;;5047489;28;4969;-68
2023/07/06 14:59:23;;;;;;;;;;;;;;;;;;5047761;28;4744;-69
2023/07/06 15:01:48;;;;;;;;;;;;;;;;;;5036833;28;1214;-70
2023/07/06 15:04:14;;;;;;;;;;;;;;;;;;5028433;28;4933;-71
2023/07/06 15:06:39;;;;;;;;;;;;;;;;;;5027024;28;5039;-67
2023/07/06 15:09:04;;;;;;;;;;;;;;;;;;5042951;28;4952;-68
2023/07/06 15:11:29;;;;;;;;;;;;;;;;;;5027339;28;4683;-69
2023/07/06 15:13:55;;;;;;;;;;;;;;;;;;5028973;28;1628;-67
2023/07/06 15:16:20;;;;;;;;;;;;;;;;;;5028300;28;5096;-67
2023/07/06 15:18:45;;;;;;;;;;;;;;;;;;5027704;28;5038;-67
2023/07/06 15:21:11;;;;;;;;;;;;;;;;;;5027843;28;4709;-67
2023/07/06 15:23:37;;;;;;;;;;;;;;;;;;5027850;28;5050;-67
2023/07/06 15:26:02;;;;;;;;;;;;;;;;;;5021911;28;1264;-67
2023/07/06 15:28:28;;;;;;;;;;;;;;;;;;5018297;28;4979;-67
2023/07/06 15:30:53;;;;;;;;;;;;;;;;;;5027584;28;4698;-68
2023/07/06 15:33:18;;;;;;;;;;;;;;;;;;5027535;28;4469;-69
2023/07/06 15:35:43;;;;;;;;;;;;;;;;;;5026992;28;5016;-68
2023/07/06 15:38:09;;;;;;;;;;;;;;;;;;5024412;28;5034;-70
2023/07/06 15:40:34;;;;;;;;;;;;;;;;;;5028472;28;1918;-68
2023/07/06 15:42:59;;;;;;;;;;;;;;;;;;5027666;28;4485;-69
2023/07/06 15:45:24;;;;;;;;;;;;;;;;;;5027333;28;5007;-67
2023/07/06 15:47:50;;;;;;;;;;;;;;;;;;5026618;28;5064;-70
2023/07/06 15:50:15;;;;;;;;;;;;;;;;;;5042646;28;4672;-69
2023/07/06 15:52:41;;;;;;;;;;;;;;;;;;5007652;28;3670;-68
2023/07/06 15:55:07;;;;;;;;;;;;;;;;;;5027954;28;4856;-60
2023/07/06 15:57:32;;;;;;;;;;;;;;;;;;5032736;28;4518;-61
2023/07/06 15:59:58;;;;;;;;;;;;;;;;;;5025923;28;4683;-60
2023/07/06 16:02:23;;;;;;;;;;;;;;;;;;5043104;28;4944;-55
2023/07/06 16:04:48;;;;;;;;;;;;;;;;;;5062594;28;1214;-64
2023/07/06 16:07:13;;;;;;;;;;;;;;;;;;5019192;28;5135;-68
2023/07/06 16:09:39;;;;;;;;;;;;;;;;;;5041526;28;5055;-68
2023/07/06 16:12:04;;;;;;;;;;;;;;;;;;5041017;28;5232;-57
2023/07/06 16:14:29;;;;;;;;;;;;;;;;;;5045218;28;4838;-65
2023/07/06 16:16:55;;;;;;;;;;;;;;;;;;5045011;28;2016;-67
2023/07/06 16:19:20;;;;;;;;;;;;;;;;;;5041686;28;4510;-72
2023/07/06 16:21:45;;;;;;;;;;;;;;;;;;5042291;28;5076;-66
2023/07/06 16:24:10;;;;;;;;;;;;;;;;;;5040138;28;5339;-67
2023/07/06 16:26:36;;;;;;;;;;;;;;;;;;5061277;28;5004;-68
2023/07/06 16:29:01;;;;;;;;;;;;;;;;;;5040757;28;3625;-63
2023/07/06 16:31:26;;;;;;;;;;;;;;;;;;5022418;28;4659;-67
2023/07/06 16:33:52;;;;;;;;;;;;;;;;;;5044139;28;4669;-65
2023/07/06 16:36:17;;;;;;;;;;;;;;;;;;5044113;28;4993;-62
2023/07/06 16:38:42;;;;;;;;;;;;;;;;;;5057408;28;4476;-62
2023/07/06 16:41:08;;;;;;;;;;;;;;;;;;5040615;28;4640;-66
2023/07/06 16:43:34;;;;;;;;;;;;;;;;;;5044061;28;1499;-57
2023/07/06 16:45:59;;;;;;;;;;;;;;;;;;5045370;28;5010;-59
2023/07/06 16:48:24;;;;;;;;;;;;;;;;;;5043950;28;5083;-58
2023/07/06 16:50:53;;;;;;;;;;;;;;;;;;5044459;28;4936;-59
2023/07/06 16:53:18;;;;;;;;;;;;;;;;;;5044496;28;4492;-59
2023/07/06 16:55:44;;;;;;;;;;;;;;;;;;5044630;28;1482;-58
2023/07/06 16:58:09;;;;;;;;;;;;;;;;;;5044690;28;5062;-59
2023/07/06 17:00:34;;;;;;;;;;;;;;;;;;5048975;28;5163;-59
2023/07/06 17:02:59;;;;;;;;;;;;;;;;;;5043347;28;4490;-58
2023/07/06 17:05:25;;;;;;;;;;;;;;;;;;5029257;28;5055;-64
2023/07/06 17:07:51;;;;;;;;;;;;;;;;;;5048994;28;2253;-62